Urundel, Argentina
Current Conditions -  °F | °C
As of 2:00 PM on Thursday 27 Nov 2014 (Local Time) from SASJ Reporting Station
Scattered Clouds Scattered Clouds  
Wind Chill: 27°   Ceiling: Unl
Heat Index: 28°   Visibility: 6mi
Dew Point: 17°   Wind: 8mph
Humidity: 54%   Direction: 70°ENE
Pressure: 30.03"   Gusts: NA
Location:  23.55°S, 64.42°W
Report Text: SASJ 271700Z 07007KT 340V120 9999 SCT025SCT035 27/17 Q1017
Loading
Personal Weather Stations






























Interactive Weather Map New forecast layout! Learn more

10-Day Weather Forecast

Advertisements
Track Severe Weather on mobile